Time;durP1;ratioP1;P1;durP2;ratioP2;P2;SDS_P1;SDS_P2;PMS_P1;PMS_P2;Temp;Humidity;BMP_temperature;BMP_pressure;BME280_temperature;BME280_humidity;BME280_pressure;Samples;Min_cycle;Max_cycle;Signal;HPM_P1;HPM_P2
2020/12/11 00:01:02;;;;;;;17.80;7.93;;;8.60;85.70;;;;;;5024767;28;20026;-52
2020/12/11 00:03:27;;;;;;;19.92;9.10;;;8.60;85.60;;;;;;5025796;28;20029;-51
2020/12/11 00:05:53;;;;;;;20.48;8.15;;;8.60;85.60;;;;;;5024576;28;20022;-51
2020/12/11 00:08:19;;;;;;;16.50;6.85;;;8.60;85.60;;;;;;5026205;28;20032;-52
2020/12/11 00:10:46;;;;;;;18.75;8.20;;;8.60;85.60;;;;;;5027559;28;20462;-52
2020/12/11 00:13:11;;;;;;;18.42;7.20;;;8.60;85.50;;;;;;5027995;28;20508;-52
2020/12/11 00:15:37;;;;;;;14.75;7.78;;;8.60;85.50;;;;;;5027746;28;20028;-52
2020/12/11 00:18:03;;;;;;;18.83;8.32;;;8.60;85.50;;;;;;5026445;28;20053;-52
2020/12/11 00:20:28;;;;;;;19.52;6.90;;;8.60;85.50;;;;;;5026375;28;20025;-52
2020/12/11 00:22:54;;;;;;;15.95;7.00;;;8.60;85.60;;;;;;5023843;28;20514;-52
2020/12/11 00:25:21;;;;;;;17.10;7.15;;;8.60;85.60;;;;;;5029351;28;20021;-52
2020/12/11 00:27:47;;;;;;;16.88;7.05;;;8.60;85.70;;;;;;5023691;28;20025;-52
2020/12/11 00:30:13;;;;;;;18.10;6.28;;;8.60;85.50;;;;;;5025189;28;20129;-51
2020/12/11 00:32:38;;;;;;;17.92;7.43;;;8.60;85.70;;;;;;5025085;28;20463;-51
2020/12/11 00:35:07;;;;;;;13.23;6.47;;;8.60;85.60;;;;;;5022965;28;20037;-52
2020/12/11 00:37:34;;;;;;;18.45;6.53;;;8.60;85.60;;;;;;5025783;28;20116;-51
2020/12/11 00:40:00;;;;;;;15.70;6.68;;;8.60;85.80;;;;;;5025524;28;20046;-51
2020/12/11 00:42:25;;;;;;;17.27;6.95;;;8.60;85.70;;;;;;5022765;28;20049;-51
2020/12/11 00:44:51;;;;;;;16.25;7.55;;;8.60;85.70;;;;;;5023738;28;20030;-52
2020/12/11 00:47:17;;;;;;;14.35;5.93;;;8.60;85.50;;;;;;5026551;28;20026;-51
2020/12/11 00:49:42;;;;;;;15.80;7.07;;;8.60;85.40;;;;;;5021692;28;20036;-52
2020/12/11 00:52:08;;;;;;;13.82;6.88;;;8.60;85.80;;;;;;5023807;28;20038;-52
2020/12/11 00:54:34;;;;;;;15.93;6.43;;;8.60;85.50;;;;;;5025113;28;20029;-51
2020/12/11 00:57:00;;;;;;;14.43;7.35;;;8.60;85.30;;;;;;5024223;28;20048;-52
2020/12/11 00:59:25;;;;;;;17.88;7.95;;;8.60;85.40;;;;;;5024540;28;20026;-52
2020/12/11 01:01:51;;;;;;;18.05;7.97;;;8.60;85.70;;;;;;5023960;28;20030;-52
2020/12/11 01:04:16;;;;;;;18.95;6.95;;;8.60;85.50;;;;;;5023284;28;20490;-52
2020/12/11 01:06:42;;;;;;;14.77;6.45;;;8.60;85.40;;;;;;5024509;28;20026;-51
2020/12/11 01:09:08;;;;;;;15.13;7.30;;;8.60;85.30;;;;;;5023122;28;20370;-51
2020/12/11 01:11:34;;;;;;;10.85;5.07;;;8.60;85.60;;;;;;5025558;28;20026;-52
2020/12/11 01:14:00;;;;;;;15.07;6.45;;;8.60;85.70;;;;;;5024287;28;20080;-52
2020/12/11 01:16:26;;;;;;;16.35;7.10;;;8.60;85.50;;;;;;5029765;28;20430;-52
2020/12/11 01:18:52;;;;;;;16.85;7.00;;;8.60;85.50;;;;;;5025348;28;20037;-52
2020/12/11 01:21:17;;;;;;;13.43;6.80;;;8.60;85.60;;;;;;5024620;28;20056;-52
2020/12/11 01:23:43;;;;;;;15.10;5.60;;;8.60;85.50;;;;;;5024298;28;20022;-52
2020/12/11 01:26:09;;;;;;;12.65;6.00;;;8.60;85.50;;;;;;5023552;28;20034;-51
2020/12/11 01:28:36;;;;;;;10.73;5.43;;;8.50;85.70;;;;;;5022808;28;20026;-52
2020/12/11 01:31:03;;;;;;;14.27;6.72;;;8.60;85.90;;;;;;5024215;28;20393;-51
2020/12/11 01:33:29;;;;;;;13.13;6.75;;;8.60;85.40;;;;;;5023493;28;20026;-51
2020/12/11 01:35:54;;;;;;;15.20;7.07;;;8.50;85.60;;;;;;5038056;28;20109;-52
2020/12/11 01:38:20;;;;;;;16.60;7.20;;;8.60;85.60;;;;;;5023938;28;20041;-51
2020/12/11 01:40:46;;;;;;;14.25;6.43;;;8.60;85.50;;;;;;5024061;28;20105;-52
2020/12/11 01:43:12;;;;;;;13.02;5.43;;;8.50;85.40;;;;;;5023541;28;20034;-51
2020/12/11 01:45:38;;;;;;;7.05;3.95;;;8.50;85.50;;;;;;5026029;28;20021;-52
2020/12/11 01:48:05;;;;;;;13.02;5.75;;;8.60;85.60;;;;;;5024203;28;20053;-52
2020/12/11 01:50:32;;;;;;;16.08;6.85;;;8.60;85.40;;;;;;5023952;28;20026;-51
2020/12/11 01:52:58;;;;;;;16.65;7.45;;;8.60;85.60;;;;;;5023893;28;20040;-52
2020/12/11 01:55:23;;;;;;;13.68;7.30;;;8.60;85.60;;;;;;5024395;28;20097;-51
2020/12/11 01:58:01;;;;;;;17.00;6.57;;;8.60;85.60;;;;;;5023472;28;20032;-52
2020/12/11 02:00:27;;;;;;;13.20;6.07;;;8.60;85.30;;;;;;5025146;28;20057;-52
2020/12/11 02:03:05;;;;;;;12.32;5.78;;;8.60;85.30;;;;;;5025429;28;20169;-52
2020/12/11 02:05:31;;;;;;;14.15;7.10;;;8.50;85.30;;;;;;5024673;28;20041;-52
2020/12/11 02:07:58;;;;;;;18.52;7.75;;;8.60;85.30;;;;;;5022475;28;20014;-52
2020/12/11 02:10:23;;;;;;;18.30;7.32;;;8.60;85.50;;;;;;5025428;28;20160;-52
2020/12/11 02:12:49;;;;;;;20.13;7.50;;;8.50;85.40;;;;;;5022667;28;20120;-52
2020/12/11 02:15:15;;;;;;;15.82;7.78;;;8.50;85.20;;;;;;5020763;28;20048;-52
2020/12/11 02:17:41;;;;;;;16.70;7.13;;;8.50;85.20;;;;;;5025036;28;20038;-52
2020/12/11 02:20:07;;;;;;;17.65;7.50;;;8.50;85.20;;;;;;5023245;28;20025;-52
2020/12/11 02:22:32;;;;;;;12.02;5.05;;;8.50;85.20;;;;;;5024764;28;20030;-52
2020/12/11 02:24:58;;;;;;;14.90;6.65;;;8.50;85.40;;;;;;5022937;28;20026;-52
2020/12/11 02:27:23;;;;;;;15.75;7.80;;;8.50;85.30;;;;;;5026931;28;20030;-52
2020/12/11 02:29:49;;;;;;;12.18;5.25;;;8.50;85.20;;;;;;5029060;28;20033;-52
2020/12/11 02:32:15;;;;;;;14.77;7.05;;;8.50;85.20;;;;;;5033577;28;20355;-52
2020/12/11 02:34:44;;;;;;;18.65;8.60;;;8.50;85.10;;;;;;5021860;28;20444;-51
2020/12/11 02:37:11;;;;;;;16.55;7.82;;;8.50;85.20;;;;;;5034158;28;20022;-52
2020/12/11 02:39:37;;;;;;;19.33;7.53;;;8.50;85.10;;;;;;5033496;28;20038;-51
2020/12/11 02:42:03;;;;;;;12.60;7.20;;;8.50;85.10;;;;;;5026916;28;20037;-52
2020/12/11 02:44:28;;;;;;;12.68;5.45;;;8.50;85.00;;;;;;5014939;28;20034;-51
2020/12/11 02:46:54;;;;;;;14.63;7.25;;;8.50;84.90;;;;;;5030754;28;20030;-51
2020/12/11 02:49:20;;;;;;;15.18;7.25;;;8.50;85.20;;;;;;5033399;28;20030;-52
2020/12/11 02:51:45;;;;;;;15.35;6.65;;;8.50;85.00;;;;;;5033832;28;20071;-51
2020/12/11 02:54:11;;;;;;;13.52;6.22;;;8.50;85.00;;;;;;5033783;28;20038;-52
2020/12/11 02:56:36;;;;;;;11.05;5.70;;;8.60;85.10;;;;;;5022192;28;20033;-51
2020/12/11 02:59:02;;;;;;;6.13;3.78;;;8.50;84.90;;;;;;5017726;28;20038;-52
2020/12/11 03:01:28;;;;;;;15.75;7.80;;;8.50;84.90;;;;;;5031558;28;20022;-51
2020/12/11 03:03:58;;;;;;;16.13;7.82;;;8.50;84.90;;;;;;5036776;28;20347;-52
2020/12/11 03:06:28;;;;;;;12.48;5.75;;;8.50;85.00;;;;;;5021882;28;20022;-52
2020/12/11 03:08:54;;;;;;;16.73;6.85;;;8.50;84.80;;;;;;5017688;28;20044;-52
2020/12/11 03:11:20;;;;;;;19.33;7.82;;;8.50;84.80;;;;;;5017515;28;20030;-51
2020/12/11 03:13:46;;;;;;;11.13;5.13;;;8.50;84.80;;;;;;5022937;28;20022;-52
2020/12/11 03:16:12;;;;;;;13.27;6.65;;;8.50;85.00;;;;;;5019256;28;20021;-51
2020/12/11 03:18:38;;;;;;;12.38;6.65;;;8.50;85.10;;;;;;5017139;28;20363;-52
2020/12/11 03:21:03;;;;;;;13.68;7.53;;;8.50;84.90;;;;;;5017043;28;20026;-52
2020/12/11 03:23:29;;;;;;;13.27;6.43;;;8.50;84.90;;;;;;5025774;28;20037;-51
2020/12/11 03:25:55;;;;;;;5.13;3.28;;;8.50;84.80;;;;;;5026702;28;20447;-52
2020/12/11 03:28:21;;;;;;;19.52;10.40;;;8.50;84.70;;;;;;5026097;28;20042;-52
2020/12/11 03:30:46;;;;;;;14.38;8.05;;;8.50;84.60;;;;;;5025292;28;20129;-51
2020/12/11 03:33:12;;;;;;;18.92;8.68;;;8.50;84.60;;;;;;5016898;28;20030;-51
2020/12/11 03:35:37;;;;;;;16.70;8.30;;;8.50;84.70;;;;;;5024305;28;20336;-52
2020/12/11 03:38:04;;;;;;;16.73;8.13;;;8.50;84.70;;;;;;5035863;28;20354;-52
2020/12/11 03:40:30;;;;;;;19.88;7.50;;;8.50;85.40;;;;;;5016911;28;20041;-52
2020/12/11 03:42:55;;;;;;;17.20;8.63;;;8.50;84.60;;;;;;5016787;28;20030;-52
2020/12/11 03:45:21;;;;;;;18.30;8.00;;;8.50;84.50;;;;;;5022588;28;20104;-52
2020/12/11 03:47:47;;;;;;;14.27;7.20;;;8.50;84.50;;;;;;5032244;28;20079;-52
2020/12/11 03:50:12;;;;;;;19.90;7.95;;;8.50;84.70;;;;;;5035928;28;20405;-51
2020/12/11 03:52:38;;;;;;;23.15;8.80;;;8.50;84.70;;;;;;5031350;28;20030;-51
2020/12/11 03:55:04;;;;;;;18.85;7.65;;;8.50;84.40;;;;;;5033319;28;20079;-52
2020/12/11 03:57:29;;;;;;;17.55;8.38;;;8.50;84.50;;;;;;5027174;28;20030;-51
2020/12/11 03:59:55;;;;;;;16.25;8.05;;;8.50;84.50;;;;;;5016888;28;20038;-51
2020/12/11 04:02:21;;;;;;;21.55;9.15;;;8.50;84.50;;;;;;5016287;28;20103;-51
2020/12/11 04:04:47;;;;;;;17.27;6.63;;;8.50;84.50;;;;;;5016004;28;20068;-51
2020/12/11 04:07:13;;;;;;;18.17;8.98;;;8.50;84.40;;;;;;5022258;28;20045;-51
2020/12/11 04:09:39;;;;;;;18.65;7.78;;;8.50;84.60;;;;;;5017454;28;20026;-52
2020/12/11 04:12:05;;;;;;;15.73;7.00;;;8.50;84.30;;;;;;5022919;28;20040;-51
2020/12/11 04:14:31;;;;;;;12.15;4.75;;;8.50;84.40;;;;;;5028472;28;20033;-51
2020/12/11 04:16:59;;;;;;;15.15;7.10;;;8.50;84.40;;;;;;5022774;28;20052;-52
2020/12/11 04:19:25;;;;;;;15.90;7.40;;;8.50;84.40;;;;;;5016417;28;20040;-52
2020/12/11 04:21:52;;;;;;;16.02;7.50;;;8.50;84.50;;;;;;5031127;28;20064;-51
2020/12/11 04:24:19;;;;;;;15.73;6.57;;;8.50;84.50;;;;;;5034757;28;20090;-51
2020/12/11 04:26:45;;;;;;;21.05;8.98;;;8.50;84.60;;;;;;5017479;28;20033;-52
2020/12/11 04:29:11;;;;;;;16.80;7.25;;;8.40;84.10;;;;;;5020888;28;20405;-52
2020/12/11 04:31:36;;;;;;;17.13;6.68;;;8.50;84.70;;;;;;5027048;28;20101;-52
2020/12/11 04:34:03;;;;;;;16.85;7.68;;;8.40;84.70;;;;;;5018921;28;20026;-52
2020/12/11 04:36:29;;;;;;;18.65;8.50;;;8.50;84.30;;;;;;5034367;28;20059;-51
2020/12/11 04:38:54;;;;;;;20.98;9.93;;;8.40;84.30;;;;;;5034773;28;20045;-52
2020/12/11 04:41:20;;;;;;;16.75;8.10;;;8.50;84.20;;;;;;5020532;28;20115;-52
2020/12/11 04:43:50;;;;;;;19.20;9.55;;;8.50;84.30;;;;;;5023277;28;20523;-51
2020/12/11 04:46:16;;;;;;;18.63;6.05;;;8.40;84.00;;;;;;5027299;28;20026;-52
2020/12/11 04:48:42;;;;;;;20.17;8.27;;;8.50;84.50;;;;;;5026215;28;20455;-51
2020/12/11 04:51:09;;;;;;;20.52;9.65;;;8.40;84.10;;;;;;5029086;28;20084;-51
2020/12/11 04:53:37;;;;;;;12.77;4.70;;;8.40;83.90;;;;;;5034365;28;20426;-51
2020/12/11 04:56:05;;;;;;;13.77;6.20;;;8.40;84.10;;;;;;5025503;28;20061;-51
2020/12/11 04:58:32;;;;;;;4.07;2.38;;;8.50;84.40;;;;;;5015043;28;20475;-51
2020/12/11 05:01:04;;;;;;;25.95;10.70;;;8.50;84.60;;;;;;5015578;28;20079;-51
2020/12/11 05:03:34;;;;;;;19.63;9.25;;;8.40;84.00;;;;;;5015688;28;20061;-52
2020/12/11 05:05:59;;;;;;;22.27;9.15;;;8.40;84.00;;;;;;5023869;28;20454;-52
2020/12/11 05:08:25;;;;;;;18.60;6.60;;;8.40;83.80;;;;;;5021022;28;20088;-51
2020/12/11 05:10:51;;;;;;;19.05;8.80;;;8.40;84.00;;;;;;5024845;28;20032;-51
2020/12/11 05:13:25;;;;;;;19.25;7.53;;;8.40;84.10;;;;;;5038192;28;20052;-52
2020/12/11 05:16:13;;;;;;;19.73;8.65;;;8.40;84.00;;;;;;5022260;28;20108;-51
2020/12/11 05:18:39;;;;;;;23.80;9.73;;;8.40;84.00;;;;;;5021190;28;20029;-52
2020/12/11 05:21:22;;;;;;;15.15;7.93;;;8.40;83.90;;;;;;5021792;28;20354;-51
2020/12/11 05:24:01;;;;;;;15.32;6.85;;;8.40;84.00;;;;;;5034872;28;20030;-52
2020/12/11 05:26:32;;;;;;;22.30;9.73;;;8.40;83.90;;;;;;5033762;28;20025;-52
2020/12/11 05:28:58;;;;;;;21.15;8.93;;;8.40;83.80;;;;;;5030333;28;20351;-52
2020/12/11 05:31:24;;;;;;;24.38;9.88;;;8.40;83.60;;;;;;5022145;28;20447;-52
2020/12/11 05:34:09;;;;;;;20.95;8.10;;;8.40;83.80;;;;;;5033633;28;20030;-53
2020/12/11 05:36:46;;;;;;;17.15;7.65;;;8.40;83.60;;;;;;5032936;28;20508;-53
2020/12/11 05:39:13;;;;;;;14.30;5.90;;;8.40;83.60;;;;;;5020690;28;20041;-52
2020/12/11 05:41:39;;;;;;;9.55;5.68;;;8.40;83.70;;;;;;5019893;28;20025;-52
2020/12/11 05:44:23;;;;;;;20.05;8.10;;;8.40;83.70;;;;;;5025264;28;20071;-52
2020/12/11 05:46:49;;;;;;;23.90;10.77;;;8.40;83.40;;;;;;5028807;28;20035;-52
2020/12/11 05:49:32;;;;;;;14.07;7.68;;;8.40;83.40;;;;;;5033288;28;20029;-53
2020/12/11 05:52:18;;;;;;;21.65;9.90;;;8.40;83.50;;;;;;5034291;28;20100;-53
2020/12/11 05:54:45;;;;;;;17.35;7.25;;;8.40;83.40;;;;;;5028526;28;20033;-52
2020/12/11 05:57:13;;;;;;;12.10;4.57;;;8.50;83.50;;;;;;5032807;28;20025;-52
2020/12/11 05:59:39;;;;;;;17.33;6.65;;;8.50;83.70;;;;;;5033873;28;20047;-52
2020/12/11 06:02:05;;;;;;;17.60;6.78;;;8.50;83.50;;;;;;5032598;28;20026;-53
2020/12/11 06:04:31;;;;;;;13.15;6.50;;;8.50;83.60;;;;;;5033184;28;20079;-52
2020/12/11 06:06:58;;;;;;;17.55;6.93;;;8.40;83.60;;;;;;5018919;28;20466;-52
2020/12/11 06:09:35;;;;;;;16.27;6.70;;;8.40;83.50;;;;;;5022478;28;20041;-52
2020/12/11 06:12:03;;;;;;;18.67;7.88;;;8.50;83.80;;;;;;5025269;28;20029;-52
2020/12/11 06:15:03;;;;;;;22.67;9.35;;;8.40;83.50;;;;;;5017899;28;20105;-52
2020/12/11 06:17:59;;;;;;;17.80;7.68;;;8.40;83.50;;;;;;5014492;28;20052;-53
2020/12/11 06:20:26;;;;;;;19.05;8.52;;;8.40;83.40;;;;;;5017924;28;20037;-52
2020/12/11 06:22:52;;;;;;;14.45;6.10;;;8.40;83.30;;;;;;5033669;28;20087;-52
2020/12/11 06:25:28;;;;;;;8.93;3.35;;;8.40;83.30;;;;;;5018738;28;20037;-55
2020/12/11 06:27:57;;;;;;;11.43;5.97;;;8.40;82.90;;;;;;5015948;28;20030;-53
2020/12/11 06:30:33;;;;;;;21.33;8.10;;;8.40;83.90;;;;;;5021137;28;20045;-52
2020/12/11 06:33:00;;;;;;;7.28;3.33;;;8.30;83.60;;;;;;5027644;28;20083;-53
2020/12/11 06:35:27;;;;;;;19.67;8.20;;;8.30;82.90;;;;;;5023442;28;20022;-53
2020/12/11 06:37:53;;;;;;;23.92;10.65;;;8.40;82.90;;;;;;5022375;28;20363;-53
2020/12/11 06:40:46;;;;;;;19.95;8.50;;;8.40;82.80;;;;;;5024493;28;20087;-53
2020/12/11 06:43:44;;;;;;;21.75;10.68;;;8.40;82.60;;;;;;5030402;28;20044;-52
2020/12/11 06:46:20;;;;;;;13.02;6.93;;;8.30;82.40;;;;;;5036273;28;20021;-53
2020/12/11 06:49:12;;;;;;;12.23;6.40;;;8.40;82.40;;;;;;5032092;28;20029;-52
2020/12/11 06:51:46;;;;;;;20.23;8.25;;;8.40;82.50;;;;;;5021504;28;20109;-53
2020/12/11 06:54:21;;;;;;;18.48;8.90;;;8.40;82.30;;;;;;5023521;28;20368;-53
2020/12/11 06:56:55;;;;;;;17.85;9.18;;;8.40;82.40;;;;;;5031533;28;20021;-52
2020/12/11 06:59:24;;;;;;;16.25;7.38;;;8.40;83.00;;;;;;5021359;28;20030;-53
2020/12/11 07:01:53;;;;;;;19.23;8.40;;;8.40;83.00;;;;;;5033035;28;20468;-53
2020/12/11 07:04:19;;;;;;;16.77;8.75;;;8.40;82.20;;;;;;5021475;28;20462;-52
2020/12/11 07:06:54;;;;;;;17.00;7.22;;;8.40;82.30;;;;;;5026847;28;20060;-53
2020/12/11 07:09:21;;;;;;;19.85;7.70;;;8.40;83.20;;;;;;5027385;28;20029;-53
2020/12/11 07:11:47;;;;;;;13.52;7.03;;;8.40;82.40;;;;;;5023052;28;20021;-52
2020/12/11 07:14:14;;;;;;;16.65;7.60;;;8.40;82.40;;;;;;5023345;28;20052;-52
2020/12/11 07:16:43;;;;;;;17.13;7.88;;;8.40;82.30;;;;;;5028631;28;20063;-53
2020/12/11 07:19:10;;;;;;;19.73;8.10;;;8.40;82.70;;;;;;5021273;28;20459;-53
2020/12/11 07:21:37;;;;;;;13.13;4.80;;;8.40;82.40;;;;;;5022658;28;20061;-53
2020/12/11 07:24:04;;;;;;;11.90;5.40;;;8.40;82.40;;;;;;5017717;28;20038;-52
2020/12/11 07:26:30;;;;;;;17.17;8.02;;;8.40;82.50;;;;;;5026464;28;20076;-53
2020/12/11 07:29:09;;;;;;;24.65;8.95;;;8.40;82.40;;;;;;5030596;28;20387;-52
2020/12/11 07:31:39;;;;;;;20.10;8.55;;;8.40;82.30;;;;;;5026742;28;20362;-52
2020/12/11 07:34:15;;;;;;;16.30;6.25;;;8.40;82.30;;;;;;5028260;28;20426;-53
2020/12/11 07:36:43;;;;;;;22.15;9.38;;;8.40;82.50;;;;;;5030540;28;20044;-53
2020/12/11 07:39:15;;;;;;;21.63;9.13;;;8.40;82.50;;;;;;5028582;28;20033;-53
2020/12/11 07:41:45;;;;;;;21.33;8.10;;;8.40;82.20;;;;;;5023850;28;20055;-53
2020/12/11 07:44:33;;;;;;;19.90;8.25;;;8.40;82.20;;;;;;5026198;28;20030;-53
2020/12/11 07:47:21;;;;;;;16.08;7.47;;;8.40;82.20;;;;;;5026425;28;20082;-53
2020/12/11 07:49:47;;;;;;;9.10;4.63;;;8.40;82.50;;;;;;5024204;28;20033;-52
2020/12/11 07:52:21;;;;;;;17.10;7.75;;;8.40;82.30;;;;;;5026282;28;20428;-53
2020/12/11 07:54:47;;;;;;;18.33;7.10;;;8.40;82.50;;;;;;5027837;28;20092;-53
2020/12/11 07:57:15;;;;;;;14.02;7.20;;;8.40;83.10;;;;;;5026669;28;20025;-53
2020/12/11 07:59:41;;;;;;;18.13;8.18;;;8.40;82.40;;;;;;5020778;28;20026;-53
2020/12/11 08:02:08;;;;;;;21.80;8.70;;;8.40;82.50;;;;;;5024950;28;20106;-53
2020/12/11 08:04:37;;;;;;;20.58;8.50;;;8.40;82.20;;;;;;5025021;28;20057;-53
2020/12/11 08:07:03;;;;;;;24.38;10.38;;;8.40;82.10;;;;;;5023957;28;20101;-53
2020/12/11 08:09:34;;;;;;;20.23;8.85;;;8.40;82.10;;;;;;5025880;28;20029;-53
2020/12/11 08:12:19;;;;;;;21.38;9.77;;;8.40;82.10;;;;;;5017985;28;20070;-53
2020/12/11 08:14:45;;;;;;;20.00;9.43;;;8.40;82.30;;;;;;5018445;28;20053;-52
2020/12/11 08:17:13;;;;;;;20.42;9.50;;;8.40;82.20;;;;;;5025812;28;20395;-53
2020/12/11 08:19:39;;;;;;;19.33;8.93;;;8.40;82.20;;;;;;5018491;28;20022;-53
2020/12/11 08:22:16;;;;;;;18.38;8.30;;;8.40;82.40;;;;;;5026227;28;20382;-53
2020/12/11 08:24:43;;;;;;;18.73;7.65;;;8.40;82.30;;;;;;5020539;28;20366;-53
2020/12/11 08:27:20;;;;;;;17.42;8.05;;;8.40;82.30;;;;;;5025950;28;20033;-53
2020/12/11 08:30:14;;;;;;;22.20;8.75;;;8.40;82.20;;;;;;5031882;28;20030;-53
2020/12/11 08:32:41;;;;;;;19.88;8.30;;;8.40;82.20;;;;;;5029058;28;20029;-53
2020/12/11 08:35:16;;;;;;;20.95;9.82;;;8.50;82.40;;;;;;5030531;28;20061;-53
2020/12/11 08:37:52;;;;;;;18.90;7.68;;;8.40;82.40;;;;;;5020075;28;20042;-53
2020/12/11 08:40:18;;;;;;;25.92;9.90;;;8.40;82.70;;;;;;5015453;28;20014;-53
2020/12/11 08:48:45;;;;;;;23.73;9.43;;;8.40;82.40;;;;;;5021857;28;20060;-53
2020/12/11 08:51:11;;;;;;;21.08;9.55;;;8.50;82.40;;;;;;5019825;28;20030;-52
2020/12/11 08:53:53;;;;;;;18.85;7.85;;;8.50;82.50;;;;;;5022440;28;20295;-53
2020/12/11 08:56:19;;;;;;;14.68;6.80;;;8.50;82.20;;;;;;5025035;28;20159;-53
2020/12/11 08:58:44;;;;;;;21.42;8.95;;;8.50;82.40;;;;;;5028530;28;20459;-52
2020/12/11 09:01:10;;;;;;;16.77;7.53;;;8.50;82.40;;;;;;5019921;28;20351;-53
2020/12/11 09:03:36;;;;;;;22.83;8.88;;;8.50;82.20;;;;;;5037570;28;20041;-53
2020/12/11 09:06:01;;;;;;;22.30;8.82;;;8.50;82.40;;;;;;5021998;28;20209;-52
2020/12/11 09:08:27;;;;;;;23.20;9.20;;;8.50;82.30;;;;;;5024102;28;20361;-52
2020/12/11 09:10:52;;;;;;;23.25;9.45;;;8.50;82.20;;;;;;5024420;28;20030;-52
2020/12/11 09:13:19;;;;;;;27.35;9.07;;;8.50;82.40;;;;;;5022516;28;20021;-53
2020/12/11 09:15:44;;;;;;;20.10;8.48;;;8.50;82.40;;;;;;5025835;28;20458;-53
2020/12/11 09:18:10;;;;;;;23.67;8.50;;;8.60;82.50;;;;;;5025238;28;20063;-53
2020/12/11 09:20:36;;;;;;;22.00;9.52;;;8.60;82.40;;;;;;5022301;28;20026;-52
2020/12/11 09:23:02;;;;;;;17.48;8.45;;;8.60;82.70;;;;;;5021909;28;20072;-52
2020/12/11 09:25:27;;;;;;;32.40;10.98;;;8.60;82.30;;;;;;5023082;28;20032;-52
2020/12/11 09:27:54;;;;;;;17.38;7.65;;;8.60;82.30;;;;;;5026832;28;20030;-53
2020/12/11 09:30:32;;;;;;;20.23;9.88;;;8.60;82.40;;;;;;5018626;28;20104;-52
2020/12/11 09:35:30;;;;;;;22.90;9.85;;;8.60;82.00;;;;;;5017026;28;20440;-53
2020/12/11 09:37:56;;;;;;;29.92;11.43;;;8.60;82.10;;;;;;5026795;28;20374;-53
2020/12/11 09:54:19;;;;;;;21.95;7.93;;;8.70;82.20;;;;;;5028069;28;20372;-53
2020/12/11 09:56:45;;;;;;;22.33;9.75;;;8.60;82.30;;;;;;5023488;28;20080;-53
2020/12/11 09:59:29;;;;;;;21.70;9.82;;;8.60;82.20;;;;;;5040629;28;20470;-52
2020/12/11 10:04:26;;;;;;;21.80;9.77;;;8.60;82.40;;;;;;5026887;28;20060;-53
2020/12/11 10:06:51;;;;;;;23.77;9.38;;;8.60;82.50;;;;;;5031990;28;20053;-52
2020/12/11 10:09:17;;;;;;;26.58;10.10;;;8.60;82.40;;;;;;5033657;28;20534;-52
2020/12/11 10:11:43;;;;;;;22.10;10.02;;;8.60;82.40;;;;;;5044419;28;20493;-53
2020/12/11 10:16:34;;;;;;;22.00;8.68;;;8.60;82.30;;;;;;5027563;28;20030;-52
2020/12/11 10:19:00;;;;;;;21.77;9.23;;;8.70;82.80;;;;;;5025913;28;20447;-53
2020/12/11 10:21:25;;;;;;;13.27;6.25;;;8.70;82.90;;;;;;5020905;28;20022;-53
2020/12/11 10:23:51;;;;;;;9.73;6.22;;;8.70;82.70;;;;;;5032449;28;20464;-52
2020/12/11 10:26:17;;;;;;;14.32;5.50;;;8.70;82.80;;;;;;5024512;28;20056;-53
2020/12/11 10:28:42;;;;;;;17.70;7.70;;;8.70;82.70;;;;;;5021855;28;20025;-53
2020/12/11 10:31:08;;;;;;;19.73;9.13;;;8.70;82.90;;;;;;5037241;28;20021;-53
2020/12/11 10:33:33;;;;;;;22.38;8.98;;;8.70;82.90;;;;;;5035083;28;20041;-53
2020/12/11 10:35:59;;;;;;;12.10;5.57;;;8.70;82.70;;;;;;5029857;28;20447;-53
2020/12/11 10:38:26;;;;;;;15.65;7.45;;;8.70;83.30;;;;;;5020965;28;20037;-53
2020/12/11 10:40:52;;;;;;;17.45;7.80;;;8.70;83.10;;;;;;5028246;28;20029;-53
2020/12/11 10:43:17;;;;;;;18.33;8.00;;;8.70;83.40;;;;;;5024355;28;20025;-53
2020/12/11 10:45:43;;;;;;;17.45;8.65;;;8.70;83.10;;;;;;5030380;28;20072;-53
2020/12/11 10:48:09;;;;;;;17.40;7.63;;;8.70;83.30;;;;;;5027109;28;20029;-54
2020/12/11 10:50:34;;;;;;;18.20;7.65;;;8.70;83.20;;;;;;5026159;28;20021;-53
2020/12/11 10:53:00;;;;;;;22.67;8.05;;;8.70;83.20;;;;;;5031246;28;20029;-52
2020/12/11 10:55:26;;;;;;;22.75;9.85;;;8.80;83.00;;;;;;5027950;28;20029;-53
2020/12/11 10:57:52;;;;;;;19.25;8.35;;;8.70;83.10;;;;;;5023292;28;20040;-53
2020/12/11 11:00:18;;;;;;;15.77;7.18;;;8.80;83.20;;;;;;5031447;28;20064;-52
2020/12/11 11:02:44;;;;;;;18.88;8.48;;;8.70;83.10;;;;;;5021302;28;20104;-52
2020/12/11 11:05:10;;;;;;;17.35;7.43;;;8.80;83.00;;;;;;5031158;28;20518;-53
2020/12/11 11:07:36;;;;;;;23.38;9.60;;;8.80;83.20;;;;;;5027030;28;20038;-53
2020/12/11 11:12:52;;;;;;;16.83;6.38;;;8.80;83.30;;;;;;5021826;28;20029;-53
2020/12/11 11:28:05;;;;;;;21.50;8.25;;;8.80;83.20;;;;;;5026519;28;20033;-53
2020/12/11 11:30:32;;;;;;;19.58;8.05;;;8.80;83.50;;;;;;5029746;28;20332;-53
2020/12/11 11:32:58;;;;;;;18.75;7.95;;;8.80;83.30;;;;;;5016376;28;20108;-53
2020/12/11 11:35:24;;;;;;;23.92;9.60;;;8.80;83.60;;;;;;5017743;28;20116;-53
2020/12/11 11:37:50;;;;;;;22.90;9.52;;;8.80;83.30;;;;;;5029438;28;20489;-53
2020/12/11 11:40:16;;;;;;;10.05;2.83;;;8.80;83.70;;;;;;5028049;28;20022;-52
2020/12/11 11:42:42;;;;;;;21.10;8.93;;;8.80;83.50;;;;;;5023017;28;20451;-53
2020/12/11 11:45:11;;;;;;;23.20;7.82;;;8.80;83.60;;;;;;5026171;28;20049;-53
2020/12/11 11:47:38;;;;;;;24.15;11.27;;;8.80;83.50;;;;;;5025491;28;20105;-53
2020/12/11 11:50:21;;;;;;;26.75;9.57;;;8.90;83.70;;;;;;5026266;28;20044;-53
2020/12/11 11:52:58;;;;;;;20.23;7.88;;;8.90;83.60;;;;;;5026336;28;20033;-53
2020/12/11 11:55:24;;;;;;;23.80;9.20;;;8.90;83.60;;;;;;5036052;28;20037;-53
2020/12/11 11:57:49;;;;;;;18.40;8.35;;;8.90;83.40;;;;;;5035849;28;20045;-53
2020/12/11 12:00:15;;;;;;;21.50;8.27;;;8.90;83.40;;;;;;5024764;28;20087;-53
2020/12/11 12:02:41;;;;;;;19.55;9.32;;;8.90;83.50;;;;;;5021207;28;20022;-53
2020/12/11 12:05:10;;;;;;;21.30;8.23;;;8.90;83.40;;;;;;5024715;28;20038;-53
2020/12/11 12:07:37;;;;;;;10.60;4.55;;;8.90;83.90;;;;;;5016193;28;20128;-53
2020/12/11 12:10:04;;;;;;;14.35;6.55;;;8.90;83.60;;;;;;5022042;28;20044;-53
2020/12/11 12:12:30;;;;;;;28.23;8.70;;;8.90;84.10;;;;;;5025876;28;20041;-53
2020/12/11 12:14:55;;;;;;;16.83;7.10;;;8.90;84.20;;;;;;5028734;28;20017;-53
2020/12/11 12:17:31;;;;;;;20.48;9.23;;;8.90;84.00;;;;;;5031176;28;20072;-53
2020/12/11 12:20:01;;;;;;;24.60;10.15;;;8.90;84.20;;;;;;5018834;28;20367;-53
2020/12/11 12:30:22;;;;;;;19.05;9.50;;;8.80;84.00;;;;;;5031547;28;20046;-53
2020/12/11 12:33:21;;;;;;;4.25;2.75;;;8.80;83.80;;;;;;5024001;28;20104;-53
2020/12/11 12:38:03;;;;;;;26.98;10.25;;;8.80;83.90;;;;;;5032715;28;20116;-53
2020/12/11 12:43:20;;;;;;;24.90;10.25;;;8.80;83.20;;;;;;5016111;28;20108;-52
2020/12/11 12:45:45;;;;;;;19.15;7.85;;;8.80;83.10;;;;;;5020139;28;20025;-53
2020/12/11 12:48:11;;;;;;;25.15;11.57;;;8.80;83.50;;;;;;5029268;28;20336;-52
2020/12/11 12:50:37;;;;;;;19.50;8.40;;;8.80;83.40;;;;;;5035409;28;20026;-53
2020/12/11 12:53:02;;;;;;;30.42;12.63;;;8.80;83.30;;;;;;5034625;28;20035;-53
2020/12/11 12:55:42;;;;;;;26.77;9.57;;;8.80;83.10;;;;;;5030023;28;20022;-53
2020/12/11 12:58:11;;;;;;;18.13;7.65;;;8.70;83.20;;;;;;5021516;28;20157;-53
2020/12/11 13:00:53;;;;;;;28.73;11.40;;;8.70;82.80;;;;;;5024453;28;20083;-53
2020/12/11 13:05:50;;;;;;;25.55;10.85;;;8.80;83.10;;;;;;5017148;28;20022;-53
2020/12/11 13:08:16;;;;;;;19.27;8.73;;;8.70;82.70;;;;;;5016365;28;20494;-52
2020/12/11 13:10:41;;;;;;;22.95;9.80;;;8.80;82.70;;;;;;5020344;28;20029;-53
2020/12/11 13:13:08;;;;;;;20.52;8.38;;;8.70;83.00;;;;;;5022880;28;20059;-53
2020/12/11 13:15:35;;;;;;;27.25;10.27;;;8.70;82.90;;;;;;5017527;28;20099;-53
2020/12/11 13:18:02;;;;;;;23.95;10.30;;;8.70;82.90;;;;;;5023505;28;20025;-53
2020/12/11 13:20:31;;;;;;;28.38;10.98;;;8.80;82.90;;;;;;5023572;28;20045;-53
2020/12/11 13:28:25;;;;;;;21.85;9.73;;;8.70;82.50;;;;;;5017897;28;20353;-53
2020/12/11 13:30:51;;;;;;;27.05;11.10;;;8.70;82.80;;;;;;5020133;28;20037;-53
2020/12/11 13:33:16;;;;;;;24.80;10.30;;;8.70;82.60;;;;;;5014920;28;20076;-53
2020/12/11 13:35:42;;;;;;;22.33;9.80;;;8.70;82.70;;;;;;5025494;28;20026;-53
2020/12/11 13:38:07;;;;;;;24.30;8.90;;;8.70;83.00;;;;;;5020648;28;20387;-53
2020/12/11 13:40:33;;;;;;;20.45;10.38;;;8.70;82.80;;;;;;5025003;28;20166;-53
2020/12/11 13:42:59;;;;;;;23.20;9.70;;;8.70;82.70;;;;;;5014934;28;20025;-53
2020/12/11 13:45:24;;;;;;;29.05;11.15;;;8.70;83.00;;;;;;5014260;28;20030;-53
2020/12/11 13:47:50;;;;;;;24.33;10.55;;;8.70;82.90;;;;;;5027244;28;20331;-53
2020/12/11 13:50:15;;;;;;;22.08;9.75;;;8.70;82.80;;;;;;5030126;28;20033;-53
2020/12/11 13:52:43;;;;;;;19.38;8.20;;;8.70;82.90;;;;;;5037266;28;20053;-53
2020/12/11 13:55:08;;;;;;;21.25;9.73;;;8.70;83.00;;;;;;5027444;28;20030;-53